Local Weather Ingen bokad jour idag Monday 27th of September
Flygplats METAR TAF
Airport METAR TAF
ESSL - Linköping262250Z AUTO 15005KT 9999 NCD 09/09 Q1023=NO VALID TAF PUBLISHED
ESCF - Malmen262250Z AUTO 13003KT 9999 NCD 09/08 Q1023=NO VALID TAF PUBLISHED
ESSP - Norrköping262250Z AUTO 12004KT 8000 NCD 09/09 Q1024=261730Z 2618/2620 12006KT CAVOK=
ESGJ - Jönköping262250Z AUTO 14004KT 9999 NCD 09/09 Q1021=NO VALID TAF PUBLISHED
ESKN - Skavsta262250Z 13006KT CAVOK 11/11 Q1024=262330Z 2700/2724 13006KT CAVOK PROB40 2700/2707 2000 BR BKN002=
ESSV - Visby262250Z AUTO 13010KT 9999 NCD 10/09 Q1025=261730Z 2618/2620 13007KT CAVOK=
ESGG - Göteborg262250Z 13009KT 9999 OVC041 12/09 Q1020=262330Z 2700/2724 13009KT 9999 OVC040 PROB40 2703/2707 BKN004 TEMPO 2707/2711 BKN030TCU BECMG 2708/2710 14015G25KT BECMG 2717/2719 RA TEMPO 2719/2724 -RA BKN014=
FLEET STATUS
Flygplan Tid till service Tid till flygstopp Flygtid Landningar
Aircraft To service To stop Total time Landings
SE-IUD27.3 h37.3 h12 472.7 h25 554 st.
SE-KIT9.2 h14.2 h12 640.8 h24 865 st.
SE-KMH4.9 h9.9 h16 645.1 h61 915 st.
SE-LRL24.4 h29.4 h1 375.6 h2 624 st.
SE-MEB42.1 h52.1 h1 757.9 h5 359 st.
SE-MEKN/AN/A3 786.0 h3 775 st.
(1) Stor deviation på kompassen (~-50 grader)
(2) Båda brytkopplingarna är trasiga, byt båda två då koplingarna ofta går isär.
(3) Glappkontakt radio och interkom vänster sida.
PPR
Ankomst Avgång Flygplan Namn Bränsle
Arrival Departure Aircraft Name Fuel
22/9 12:0022/9 14:00SEKHUJonas RybergInget
NOTAM
>>> ESSL/LINKOPING/SAAB <<<
>>> ESSP/NORRKOPING/KUNGSANGEN <<<
>>> ESCF/LINKOPING/MALMEN <<<